createdAt,value
2018-04-29T00:02:22.648Z,55.89
2018-04-29T00:04:51.747Z,56.24
2018-04-29T00:07:20.787Z,56.55
2018-04-29T00:09:49.044Z,56.70
2018-04-29T00:12:18.170Z,56.77
2018-04-29T00:14:46.450Z,56.73
2018-04-29T00:17:15.477Z,56.99
2018-04-29T00:19:44.505Z,57.33
2018-04-29T00:22:14.540Z,57.50
2018-04-29T00:24:43.397Z,57.91
2018-04-29T00:27:11.732Z,58.14
2018-04-29T00:29:40.002Z,58.99
2018-04-29T00:32:08.377Z,58.64
2018-04-29T00:34:36.639Z,58.74
2018-04-29T00:37:04.923Z,58.90
2018-04-29T00:39:33.175Z,59.16
2018-04-29T00:42:01.440Z,59.14
2018-04-29T00:44:29.716Z,59.19
2018-04-29T00:46:58.739Z,59.19
2018-04-29T00:49:26.996Z,58.96
2018-04-29T00:52:06.958Z,59.18
2018-04-29T00:54:36.047Z,59.67
2018-04-29T00:57:04.323Z,59.05
2018-04-29T00:59:32.682Z,58.81
2018-04-29T01:02:01.713Z,59.36
2018-04-29T01:04:30.068Z,59.20
2018-04-29T01:06:59.115Z,60.20
2018-04-29T01:09:27.490Z,60.30
2018-04-29T01:11:55.751Z,60.42
2018-04-29T01:14:24.986Z,60.38
2018-04-29T01:16:53.266Z,60.68
2018-04-29T01:19:22.378Z,61.10
2018-04-29T01:21:51.403Z,61.59
2018-04-29T01:24:19.681Z,61.85
2018-04-29T01:26:48.699Z,61.18
2018-04-29T01:29:17.080Z,61.70
2018-04-29T01:31:45.342Z,61.75
2018-04-29T01:34:13.588Z,60.98
2018-04-29T01:36:41.867Z,61.74
2018-04-29T01:39:10.169Z,62.05
2018-04-29T01:41:38.433Z,61.33
2018-04-29T01:44:06.823Z,62.20
2018-04-29T01:46:35.139Z,62.40
2018-04-29T01:49:03.496Z,62.09
2018-04-29T01:51:31.831Z,62.67
2018-04-29T01:54:00.094Z,62.54
2018-04-29T01:56:28.406Z,62.18
2018-04-29T01:58:56.747Z,62.08
2018-04-29T02:01:25.826Z,62.26
2018-04-29T02:03:54.117Z,61.77
2018-04-29T02:06:22.399Z,61.64
2018-04-29T02:08:50.706Z,62.31
2018-04-29T02:11:19.040Z,62.97
2018-04-29T02:13:48.068Z,62.16
2018-04-29T02:16:16.447Z,62.37
2018-04-29T02:18:44.704Z,62.22
2018-04-29T02:21:13.909Z,61.92
2018-04-29T02:23:43.671Z,62.72
2018-04-29T02:26:11.923Z,62.03
2018-04-29T02:28:41.051Z,62.62
2018-04-29T02:31:10.076Z,63.87
2018-04-29T02:33:38.367Z,64.17
2018-04-29T02:36:06.764Z,63.43
2018-04-29T02:38:35.014Z,63.77
2018-04-29T02:41:03.274Z,64.13
2018-04-29T02:43:31.715Z,64.82
2018-04-29T02:46:00.732Z,65.15
2018-04-29T02:48:29.792Z,65.96
2018-04-29T02:50:58.142Z,66.24
2018-04-29T02:53:26.430Z,66.33
2018-04-29T02:55:55.447Z,66.68
2018-04-29T02:58:23.836Z,66.67
2018-04-29T03:00:52.226Z,67.00
2018-04-29T03:03:20.482Z,67.04
2018-04-29T03:05:48.822Z,67.46
2018-04-29T03:08:17.079Z,67.21
2018-04-29T03:10:46.106Z,66.71
2018-04-29T03:13:14.430Z,66.73
2018-04-29T03:15:42.705Z,66.62
2018-04-29T03:18:11.080Z,66.75
2018-04-29T03:20:39.373Z,67.01
2018-04-29T03:23:07.664Z,67.07
2018-04-29T03:25:35.940Z,67.08
2018-04-29T03:28:04.227Z,67.11
2018-04-29T03:30:33.269Z,67.35
2018-04-29T03:33:01.642Z,66.90
2018-04-29T03:35:29.929Z,67.30
2018-04-29T03:37:58.208Z,67.06
2018-04-29T03:40:26.506Z,66.86
2018-04-29T03:42:55.609Z,66.72
2018-04-29T03:45:23.867Z,66.68
2018-04-29T03:47:52.145Z,66.47
2018-04-29T03:50:20.427Z,66.21
2018-04-29T03:52:48.711Z,66.08
2018-04-29T03:55:17.072Z,66.15
2018-04-29T03:58:03.869Z,66.35
2018-04-29T04:00:53.923Z,66.17
2018-04-29T04:03:39.847Z,66.19
2018-04-29T04:06:08.232Z,66.69
2018-04-29T04:08:36.587Z,66.54
2018-04-29T04:11:04.951Z,66.23
2018-04-29T04:13:33.266Z,66.72
2018-04-29T04:16:02.286Z,66.56
2018-04-29T04:18:30.568Z,65.91
2018-04-29T04:20:58.857Z,66.45
2018-04-29T04:23:27.971Z,66.45
2018-04-29T04:25:56.260Z,66.35
2018-04-29T04:28:24.588Z,64.54
2018-04-29T04:30:52.927Z,65.20
2018-04-29T04:33:22.054Z,65.81
2018-04-29T04:35:50.343Z,64.51
2018-04-29T04:38:18.621Z,64.14
2018-04-29T04:40:47.742Z,64.56
2018-04-29T04:43:16.559Z,63.90
2018-04-29T04:45:44.829Z,64.49
2018-04-29T04:48:13.100Z,64.73
2018-04-29T04:50:41.357Z,64.10
2018-04-29T04:53:09.706Z,63.76
2018-04-29T04:55:38.794Z,62.83
2018-04-29T04:58:07.968Z,62.98
2018-04-29T05:00:36.187Z,62.67
2018-04-29T05:03:05.246Z,62.43
2018-04-29T05:05:33.510Z,62.04
2018-04-29T05:08:01.805Z,61.50
2018-04-29T05:10:30.075Z,61.92
2018-04-29T05:12:59.213Z,61.79
2018-04-29T05:15:27.464Z,61.88
2018-04-29T05:17:56.507Z,61.84
2018-04-29T05:20:24.799Z,62.13
2018-04-29T05:22:53.186Z,61.58
2018-04-29T05:25:21.577Z,61.15
2018-04-29T05:27:49.837Z,61.73
2018-04-29T05:30:18.879Z,61.08
2018-04-29T05:32:47.167Z,61.49
2018-04-29T05:35:15.437Z,61.45
2018-04-29T05:37:44.477Z,61.23
2018-04-29T05:40:12.755Z,61.28
2018-04-29T05:42:41.044Z,60.86
2018-04-29T05:45:09.360Z,61.70
2018-04-29T05:47:37.636Z,61.44
2018-04-29T05:50:06.025Z,61.13
2018-04-29T05:52:34.305Z,61.18
2018-04-29T05:55:02.688Z,60.65
2018-04-29T05:57:31.710Z,60.03
2018-04-29T06:00:02.704Z,60.46
2018-04-29T06:02:30.971Z,59.80
2018-04-29T06:04:59.237Z,59.40
2018-04-29T06:07:28.275Z,58.76
2018-04-29T06:09:56.535Z,58.34
2018-04-29T06:12:25.552Z,58.30
2018-04-29T06:14:53.826Z,58.16
2018-04-29T06:17:22.843Z,58.16
2018-04-29T06:19:51.106Z,57.95
2018-04-29T06:22:19.514Z,58.51
2018-04-29T06:24:48.631Z,59.85
2018-04-29T06:27:17.732Z,60.38
2018-04-29T06:29:46.955Z,60.24
2018-04-29T06:32:15.978Z,60.28
2018-04-29T06:34:44.461Z,61.05
2018-04-29T06:37:12.855Z,59.80
2018-04-29T06:39:41.107Z,60.07
2018-04-29T06:42:09.433Z,60.79
2018-04-29T06:44:38.543Z,60.21
2018-04-29T06:47:06.858Z,60.53
2018-04-29T06:49:35.115Z,60.08
2018-04-29T06:52:03.391Z,61.02
2018-04-29T06:54:32.474Z,61.65
2018-04-29T06:57:01.488Z,62.85
2018-04-29T06:59:29.762Z,63.02
2018-04-29T07:01:58.112Z,63.57
2018-04-29T07:04:26.382Z,70.53
2018-04-29T07:06:55.512Z,66.52
2018-04-29T07:09:24.547Z,66.34
2018-04-29T07:11:52.807Z,69.27
2018-04-29T07:14:21.151Z,69.68
2018-04-29T07:16:50.927Z,71.61
2018-04-29T07:19:19.212Z,72.20
2018-04-29T07:21:47.485Z,72.26
2018-04-29T07:24:15.794Z,71.80
2018-04-29T07:26:44.902Z,71.02
2018-04-29T07:29:13.939Z,71.35
2018-04-29T07:31:42.295Z,74.21
2018-04-29T07:34:11.396Z,71.80
2018-04-29T07:36:39.809Z,73.83
2018-04-29T07:39:08.087Z,73.42
2018-04-29T07:41:36.362Z,73.94
2018-04-29T07:44:05.451Z,72.24
2018-04-29T07:46:33.739Z,74.53
2018-04-29T07:49:02.007Z,70.34
2018-04-29T07:51:30.284Z,66.10
2018-04-29T07:53:58.546Z,67.90
2018-04-29T07:56:27.563Z,68.33
2018-04-29T07:58:55.827Z,66.95
2018-04-29T08:01:24.843Z,68.56
2018-04-29T08:03:53.876Z,69.10
2018-04-29T08:06:22.166Z,68.70
2018-04-29T08:08:50.469Z,68.11
2018-04-29T08:11:19.557Z,65.91
2018-04-29T08:13:47.857Z,66.03
2018-04-29T08:16:16.129Z,67.74
2018-04-29T08:18:44.434Z,67.18
2018-04-29T08:21:12.704Z,68.13
2018-04-29T08:23:42.543Z,67.19
2018-04-29T08:26:10.841Z,67.29
2018-04-29T08:28:39.149Z,67.52
2018-04-29T08:31:07.520Z,68.53
2018-04-29T08:33:35.807Z,67.64
2018-04-29T08:36:04.843Z,68.69
2018-04-29T08:38:33.881Z,69.39
2018-04-29T08:41:03.652Z,69.95
2018-04-29T08:43:31.966Z,70.34
2018-04-29T08:46:00.247Z,71.06
2018-04-29T08:48:28.626Z,74.66
2018-04-29T08:50:56.939Z,73.62
2018-04-29T08:53:25.300Z,74.81
2018-04-29T08:55:54.357Z,75.18
2018-04-29T08:58:22.622Z,75.57
2018-04-29T09:00:50.892Z,77.21
2018-04-29T09:03:19.287Z,76.84
2018-04-29T09:05:47.656Z,75.05
2018-04-29T09:08:15.971Z,74.28
2018-04-29T09:10:44.262Z,74.68
2018-04-29T09:13:12.658Z,73.18
2018-04-29T09:15:40.949Z,73.53
2018-04-29T09:18:09.501Z,70.06
2018-04-29T09:20:38.041Z,71.50
2018-04-29T09:23:06.328Z,71.24
2018-04-29T09:25:34.728Z,70.23
2018-04-29T09:28:03.036Z,66.22
2018-04-29T09:30:31.440Z,68.30
2018-04-29T09:32:59.774Z,62.85
2018-04-29T09:35:28.809Z,62.53
2018-04-29T09:37:57.206Z,62.49
2018-04-29T09:40:25.454Z,64.18
2018-04-29T09:42:53.721Z,61.81
2018-04-29T09:45:21.977Z,62.52
2018-04-29T09:47:50.232Z,61.28
2018-04-29T09:50:19.270Z,60.25
2018-04-29T09:52:47.631Z,61.58
2018-04-29T09:55:16.684Z,62.46
2018-04-29T09:57:44.939Z,63.25
2018-04-29T10:00:14.059Z,63.21
2018-04-29T10:02:48.191Z,62.53
2018-04-29T10:05:16.465Z,60.83
2018-04-29T10:07:45.512Z,60.14
2018-04-29T10:10:13.800Z,57.43
2018-04-29T10:12:42.044Z,56.22
2018-04-29T10:15:11.175Z,55.02
2018-04-29T10:17:39.513Z,55.02
2018-04-29T10:20:07.762Z,51.12
2018-04-29T10:22:36.057Z,50.83
2018-04-29T10:25:04.330Z,53.09
2018-04-29T10:27:33.837Z,53.48
2018-04-29T10:30:02.857Z,52.76
2018-04-29T10:32:31.128Z,53.22
2018-04-29T10:35:00.260Z,51.85
2018-04-29T10:37:29.267Z,51.96
2018-04-29T10:39:57.582Z,52.23
2018-04-29T10:42:25.833Z,51.96
2018-04-29T10:44:54.138Z,48.05
2018-04-29T10:47:22.429Z,50.57
2018-04-29T10:49:51.542Z,50.21
2018-04-29T10:52:19.798Z,51.07
2018-04-29T10:54:49.580Z,51.02
2018-04-29T10:57:17.836Z,51.01
2018-04-29T10:59:46.111Z,49.62
2018-04-29T11:02:15.140Z,50.30
2018-04-29T11:04:43.420Z,51.53
2018-04-29T11:07:12.541Z,51.65
2018-04-29T11:09:41.640Z,50.06
2018-04-29T11:12:10.765Z,50.22
2018-04-29T11:14:39.136Z,48.96
2018-04-29T11:17:08.280Z,51.17
2018-04-29T11:19:36.545Z,49.67
2018-04-29T11:22:05.770Z,49.47
2018-04-29T11:24:33.967Z,48.67
2018-04-29T11:27:02.233Z,46.37
2018-04-29T11:29:31.243Z,47.21
2018-04-29T11:31:59.541Z,46.37
2018-04-29T11:34:28.635Z,46.18
2018-04-29T11:36:57.762Z,47.44
2018-04-29T11:39:26.961Z,48.08
2018-04-29T11:41:56.127Z,47.76
2018-04-29T11:44:24.410Z,46.88
2018-04-29T11:46:52.759Z,46.56
2018-04-29T11:49:21.770Z,47.00
2018-04-29T11:51:50.061Z,47.32
2018-04-29T11:54:19.079Z,47.07
2018-04-29T11:56:47.353Z,46.74
2018-04-29T11:59:16.448Z,46.15
2018-04-29T12:01:45.478Z,45.91
2018-04-29T12:04:13.785Z,46.16
2018-04-29T12:06:42.056Z,46.09
2018-04-29T12:09:11.091Z,43.84
2018-04-29T12:11:39.382Z,41.82
2018-04-29T12:14:07.716Z,41.77
2018-04-29T12:16:35.982Z,42.02
2018-04-29T12:19:04.233Z,41.57
2018-04-29T12:21:32.488Z,45.10
2018-04-29T12:24:01.607Z,43.52
2018-04-29T12:26:30.730Z,43.13
2018-04-29T12:28:59.731Z,43.40
2018-04-29T12:31:27.999Z,43.20
2018-04-29T12:33:57.023Z,44.80
2018-04-29T12:36:26.073Z,43.33
2018-04-29T12:38:54.361Z,43.34
2018-04-29T12:41:22.716Z,43.59
2018-04-29T12:43:51.840Z,43.36
2018-04-29T12:46:20.129Z,45.56
2018-04-29T12:48:49.156Z,46.65
2018-04-29T12:51:17.391Z,48.01
2018-04-29T12:53:45.723Z,48.30
2018-04-29T12:56:13.978Z,48.50
2018-04-29T12:58:42.230Z,47.01
2018-04-29T13:01:10.633Z,47.72
2018-04-29T13:03:38.921Z,47.47
2018-04-29T13:06:07.275Z,48.05
2018-04-29T13:08:35.658Z,47.01
2018-04-29T13:11:04.771Z,47.45
2018-04-29T13:13:33.793Z,46.47
2018-04-29T13:16:02.070Z,47.02
2018-04-29T13:18:31.278Z,45.98
2018-04-29T13:21:00.954Z,46.20
2018-04-29T13:23:29.252Z,47.03
2018-04-29T13:25:57.515Z,46.23
2018-04-29T13:28:25.798Z,44.77
2018-04-29T13:30:54.203Z,44.64
2018-04-29T13:33:22.457Z,44.75
2018-04-29T13:35:51.465Z,43.30
2018-04-29T13:38:20.498Z,41.54
2018-04-29T13:40:48.761Z,42.02
2018-04-29T13:43:17.012Z,41.87
2018-04-29T13:45:45.291Z,41.03
2018-04-29T13:48:13.663Z,41.89
2018-04-29T13:50:41.941Z,41.49
2018-04-29T13:53:11.061Z,41.27
2018-04-29T13:55:40.117Z,40.40
2018-04-29T13:58:08.396Z,40.31
2018-04-29T14:00:36.688Z,40.78
2018-04-29T14:03:04.959Z,40.59
2018-04-29T14:05:33.200Z,40.77
2018-04-29T14:08:02.250Z,40.41
2018-04-29T14:10:30.611Z,41.34
2018-04-29T14:12:58.880Z,41.33
2018-04-29T14:15:27.838Z,41.28
2018-04-29T14:17:56.121Z,42.63
2018-04-29T14:20:25.151Z,42.72
2018-04-29T14:22:53.507Z,42.43
2018-04-29T14:25:22.632Z,42.93
2018-04-29T14:27:50.871Z,42.79
2018-04-29T14:30:19.210Z,42.64
2018-04-29T14:32:48.257Z,41.38
2018-04-29T14:35:16.516Z,42.15
2018-04-29T14:37:44.787Z,43.43
2018-04-29T14:40:13.188Z,43.85
2018-04-29T14:42:42.327Z,43.20
2018-04-29T14:45:10.748Z,43.19
2018-04-29T14:47:40.612Z,43.08
2018-04-29T14:50:10.543Z,42.89
2018-04-29T14:52:38.859Z,42.90
2018-04-29T14:55:07.261Z,43.50
2018-04-29T14:57:35.727Z,43.25
2018-04-29T15:00:04.832Z,43.25
2018-04-29T15:02:33.859Z,44.01
2018-04-29T15:05:02.175Z,44.06
2018-04-29T15:07:30.546Z,43.90
2018-04-29T15:09:58.968Z,44.03
2018-04-29T15:12:27.264Z,44.50
2018-04-29T15:14:55.536Z,45.02
2018-04-29T15:17:23.878Z,44.65
2018-04-29T15:19:53.003Z,44.81
2018-04-29T15:22:22.113Z,44.80
2018-04-29T15:24:51.120Z,44.38
2018-04-29T15:27:20.159Z,44.08
2018-04-29T15:29:48.409Z,42.96
2018-04-29T15:32:17.547Z,43.17
2018-04-29T15:34:45.788Z,42.98
2018-04-29T15:37:14.067Z,42.96
2018-04-29T15:39:42.349Z,43.37
2018-04-29T15:42:10.738Z,44.44
2018-04-29T15:44:39.903Z,44.20
2018-04-29T15:47:08.298Z,45.34
2018-04-29T15:49:37.410Z,44.90
2018-04-29T15:52:05.677Z,44.90
2018-04-29T15:54:34.906Z,44.84
2018-04-29T15:57:03.899Z,44.80
2018-04-29T15:59:33.124Z,45.86
2018-04-29T16:02:02.242Z,45.93
2018-04-29T16:04:30.507Z,46.19
2018-04-29T16:06:59.558Z,45.82
2018-04-29T16:09:27.822Z,46.09
2018-04-29T16:11:56.067Z,46.55
2018-04-29T16:14:24.346Z,45.89
2018-04-29T16:16:53.885Z,45.68
2018-04-29T16:19:23.749Z,45.81
2018-04-29T16:21:52.020Z,45.65
2018-04-29T16:24:21.049Z,45.13
2018-04-29T16:26:49.299Z,45.36
2018-04-29T16:29:18.355Z,45.64
2018-04-29T16:31:47.448Z,45.48
2018-04-29T16:34:16.792Z,45.50
2018-04-29T16:36:45.075Z,45.71
2018-04-29T16:39:13.455Z,45.58
2018-04-29T16:41:42.695Z,45.64
2018-04-29T16:44:11.007Z,46.05
2018-04-29T16:46:40.011Z,47.23
2018-04-29T16:49:08.358Z,46.75
2018-04-29T16:51:36.752Z,46.68
2018-04-29T16:54:05.122Z,47.06
2018-04-29T16:56:34.264Z,47.05
2018-04-29T16:59:02.631Z,46.97
2018-04-29T17:01:33.466Z,46.46
2018-04-29T17:04:01.879Z,46.35
2018-04-29T17:06:30.991Z,46.13
2018-04-29T17:08:59.346Z,46.55
2018-04-29T17:11:27.732Z,47.00
2018-04-29T17:13:55.999Z,47.38
2018-04-29T17:16:24.451Z,47.61
2018-04-29T17:18:53.509Z,48.31
2018-04-29T17:21:21.955Z,48.50
2018-04-29T17:23:50.325Z,51.19
2018-04-29T17:26:20.835Z,50.33
2018-04-29T17:28:53.815Z,50.88
2018-04-29T17:31:23.012Z,49.07
2018-04-29T17:33:54.250Z,48.43
2018-04-29T17:36:23.308Z,52.57
2018-04-29T17:38:51.680Z,54.52
2018-04-29T17:41:20.079Z,55.74
2018-04-29T17:43:48.475Z,51.15
2018-04-29T17:46:16.967Z,54.42
2018-04-29T17:48:45.617Z,49.81
2018-04-29T17:51:13.987Z,50.98
2018-04-29T17:53:43.386Z,51.11
2018-04-29T17:56:11.869Z,49.52
2018-04-29T17:58:40.319Z,50.99
2018-04-29T18:01:08.677Z,52.36
2018-04-29T18:03:37.003Z,50.95
2018-04-29T18:06:05.425Z,54.52
2018-04-29T18:08:33.677Z,54.25
2018-04-29T18:11:01.945Z,55.50
2018-04-29T18:13:30.204Z,53.66
2018-04-29T18:15:58.484Z,54.19
2018-04-29T18:18:26.770Z,52.93
2018-04-29T18:20:55.883Z,52.41
2018-04-29T18:23:24.147Z,51.40
2018-04-29T18:25:53.284Z,52.09
2018-04-29T18:28:21.551Z,53.31
2018-04-29T18:30:50.580Z,53.50
2018-04-29T18:33:19.025Z,53.16
2018-04-29T18:35:47.268Z,54.22
2018-04-29T18:38:15.513Z,53.44
2018-04-29T18:40:43.783Z,53.72
2018-04-29T18:43:12.132Z,53.85
2018-04-29T18:45:41.549Z,54.31
2018-04-29T18:48:10.934Z,53.19
2018-04-29T18:50:41.834Z,53.66
2018-04-29T18:53:10.466Z,53.59
2018-04-29T18:55:39.468Z,53.85
2018-04-29T18:58:09.100Z,53.67
2018-04-29T19:00:37.555Z,54.00
2018-04-29T19:03:06.039Z,53.65
2018-04-29T19:05:59.251Z,53.92
2018-04-29T19:08:27.523Z,54.37
2018-04-29T19:10:56.702Z,55.60
2018-04-29T19:13:26.026Z,56.17
2018-04-29T19:15:55.104Z,56.59
2018-04-29T19:18:23.349Z,56.65
2018-04-29T19:20:51.609Z,56.89
2018-04-29T19:23:19.864Z,56.75
2018-04-29T19:25:48.260Z,56.58
2018-04-29T19:28:16.550Z,57.04
2018-04-29T19:30:44.873Z,57.27
2018-04-29T19:33:13.165Z,57.62
2018-04-29T19:35:49.494Z,57.60
2018-04-29T19:38:24.609Z,57.86
2018-04-29T19:40:54.014Z,57.79
2018-04-29T19:43:24.551Z,57.76
2018-04-29T19:45:54.219Z,57.95
2018-04-29T19:48:25.322Z,57.97
2018-04-29T19:50:53.632Z,58.14
2018-04-29T19:53:21.925Z,57.96
2018-04-29T19:55:52.905Z,58.45
2018-04-29T19:58:23.353Z,58.45
2018-04-29T20:00:53.779Z,58.71
2018-04-29T20:03:23.938Z,59.10
2018-04-29T20:05:54.159Z,59.26
2018-04-29T20:08:24.043Z,60.47
2018-04-29T20:10:53.221Z,59.92
2018-04-29T20:13:22.159Z,60.00
2018-04-29T20:15:51.196Z,60.26
2018-04-29T20:18:19.487Z,60.76
2018-04-29T20:20:49.564Z,60.94
2018-04-29T20:23:20.467Z,60.96
2018-04-29T20:25:48.965Z,61.50
2018-04-29T20:28:18.124Z,61.83
2018-04-29T20:30:47.157Z,61.99
2018-04-29T20:33:15.434Z,62.43
2018-04-29T20:35:44.468Z,62.75
2018-04-29T20:38:12.843Z,62.78
2018-04-29T20:40:41.247Z,62.92
2018-04-29T20:43:10.371Z,63.16
2018-04-29T20:45:38.958Z,63.22
2018-04-29T20:48:07.975Z,63.42
2018-04-29T20:50:36.929Z,63.57
2018-04-29T20:53:06.386Z,63.50
2018-04-29T20:55:34.642Z,63.96
2018-04-29T20:58:04.408Z,64.06
2018-04-29T21:00:32.769Z,64.27
2018-04-29T21:03:01.081Z,64.51
2018-04-29T21:05:30.237Z,64.77
2018-04-29T21:07:59.315Z,65.05
2018-04-29T21:10:27.616Z,65.47
2018-04-29T21:12:55.861Z,65.47
2018-04-29T21:15:24.954Z,65.99
2018-04-29T21:17:53.503Z,65.80
2018-04-29T21:20:21.834Z,65.90
2018-04-29T21:22:50.185Z,66.08
2018-04-29T21:25:18.441Z,66.09
2018-04-29T21:27:47.469Z,66.28
2018-04-29T21:30:15.773Z,66.51
2018-04-29T21:32:44.029Z,66.61
2018-04-29T21:35:13.174Z,66.19
2018-04-29T21:37:41.476Z,66.21
2018-04-29T21:40:09.817Z,66.07
2018-04-29T21:42:38.943Z,66.34
2018-04-29T21:45:07.250Z,66.26
2018-04-29T21:47:35.522Z,66.37
2018-04-29T21:50:04.633Z,66.48
2018-04-29T21:52:33.964Z,66.44
2018-04-29T21:55:02.332Z,66.16
2018-04-29T21:57:31.438Z,65.94
2018-04-29T22:00:00.470Z,65.96
2018-04-29T22:02:28.955Z,65.65
2018-04-29T22:04:58.012Z,65.34
2018-04-29T22:07:26.458Z,65.29
2018-04-29T22:09:54.703Z,65.33
2018-04-29T22:12:22.983Z,65.28
2018-04-29T22:14:51.372Z,65.41
2018-04-29T22:17:19.799Z,65.90
2018-04-29T22:19:48.187Z,67.18
2018-04-29T22:22:17.323Z,67.54
2018-04-29T22:24:46.340Z,68.64
2018-04-29T22:27:14.621Z,69.13
2018-04-29T22:29:42.879Z,69.40
2018-04-29T22:32:11.962Z,69.73
2018-04-29T22:34:40.243Z,70.04
2018-04-29T22:37:09.919Z,71.15
2018-04-29T22:39:38.120Z,71.62
2018-04-29T22:42:06.376Z,72.13
2018-04-29T22:44:34.665Z,73.88
2018-04-29T22:47:02.980Z,77.12
2018-04-29T22:49:31.244Z,78.51
2018-04-29T22:51:59.534Z,80.12
2018-04-29T22:54:27.861Z,80.45
2018-04-29T22:56:56.875Z,80.88
2018-04-29T22:59:25.164Z,81.39
2018-04-29T23:01:53.427Z,81.65
2018-04-29T23:04:22.462Z,82.60
2018-04-29T23:06:50.781Z,82.04
2018-04-29T23:09:19.051Z,82.21
2018-04-29T23:11:47.340Z,82.65
2018-04-29T23:14:15.725Z,82.72
2018-04-29T23:16:44.001Z,82.77
2018-04-29T23:19:13.015Z,83.02
2018-04-29T23:21:42.289Z,82.63
2018-04-29T23:24:10.545Z,83.10
2018-04-29T23:26:38.815Z,83.59
2018-04-29T23:29:07.084Z,83.82
2018-04-29T23:31:35.344Z,83.52
2018-04-29T23:34:03.607Z,84.01
2018-04-29T23:36:31.914Z,84.08
2018-04-29T23:39:00.195Z,84.25
2018-04-29T23:41:28.439Z,84.05
2018-04-29T23:43:57.915Z,84.33
2018-04-29T23:46:26.187Z,85.31
2018-04-29T23:48:54.451Z,85.11
2018-04-29T23:51:22.731Z,85.46
2018-04-29T23:53:51.747Z,84.58
2018-04-29T23:56:20.007Z,84.70
2018-04-29T23:58:49.065Z,85.11
